x

Tanner Bank - 121nm West Of San Diego, Ca (46047) Wave Buoy

12:50 - Sun 24th Sep 2017 All times are PDT. -7 hours from GMT.

  • Sig Wave height 5.2ft
  • Swell Direction
  • Peak Period 10s
  • Average Period 6s
  • Wind
    11mph, 13mph gusts
  • Sea Temp 66°f
  • Air Temp 64°f
  • Sea Pressure 1012mb
  • Tanner Bank - 121nm West Of San Diego, Ca
  • Tanner Bank - 121nm West Of San Diego, Ca

More Historic Weather Station data

Upgrade to MSW Pro to gain access to the past 30 days of data for over 8000 Wavebouys and Weather Stations around the globe.

Join

Comparision Forecast

View Surf forecast
   
dim. 09/24 12:50 5ft 10s 6s 11 13 mph 1012mb 66f 64f
11:50 5.5ft 10s 7s 11 13 mph 1012.1mb 65f 64f
10:50 5ft 9s 6s 11 13 mph 1012.2mb 65f 64f
9:50 5.5ft 9s 6s 11 13 mph 1012.3mb 65f 64f
8:50 5.5ft 6s 6s 13 16 mph 1011.9mb 65f 64f
7:50 5.5ft 10s 6s 13 13 mph 1011.5mb 65f 64f
6:50 6ft 8s 6s 11 16 mph 1011mb 65f 64f
5:50 6ft 7s 6s 13 18 mph 1010.6mb 65f 64f
4:50 6.5ft 10s 6s 16 18 mph 1010.4mb 65f 64f
3:50 6.5ft 11s 6s 16 18 mph 1010.5mb 65f 64f
2:50 6ft 9s 6s 16 18 mph 1010.7mb 65f 64f
1:50 6ft 10s 6s 18 20 mph 1011mb 65f 64f
12:50 6ft 10s 6s 16 20 mph 1011mb 65f 65f
sam. 09/23 11:50 6ft 8s 6s 16 18 mph 1011.2mb 65f 64f
10:50 6ft 10s 6s 18 20 mph 1011.3mb 65f 64f
9:50 6ft 10s 6s 16 20 mph 1011.2mb 65f 64f
8:50 6ft 10s 6s 18 20 mph 1011.1mb 65f 64f
7:50 6ft 11s 6s 16 20 mph 1010.8mb 65f 64f
6:50 6ft 11s 6s 18 22 mph 1010.6mb 65f 65f
5:50 6.5ft 11s 6s 16 20 mph 1010.5mb 65f 65f
4:50 6.5ft 7s 6s 18 20 mph 1010.7mb 66f 64f
3:50 7ft 11s 6s 18 20 mph 1010.8mb 66f 64f
2:50 7ft 11s 6s 18 20 mph 1010.9mb 66f 64f
1:50 7ft 11s 7s 20 22 mph 1011mb 66f 64f
12:50 6.5ft 7s 6s 18 20 mph 1011.4mb 65f 64f
11:50 7ft 10s 6s 18 20 mph 1011.4mb 65f 64f
10:50 7ft 11s 6s 18 20 mph 1011.6mb 65f 64f
9:50 7ft 11s 6s 18 20 mph 1011.4mb 65f 64f
8:50 7ft 11s 6s 18 20 mph 1011.3mb 65f 63f
7:50 7ft 11s 6s 18 22 mph 1011mb 65f 63f
6:50 6ft 6s 6s 18 22 mph 1010.4mb 65f 63f
5:50 6.5ft 7s 6s 18 22 mph 1010.1mb 65f 63f
4:50 7ft 10s 6s 20 22 mph 1010.1mb 65f 64f
3:50 7ft 11s 6s 18 22 mph 1009.9mb 66f 63f
2:50 7ft 11s 6s 18 20 mph 1010.1mb 66f 64f
1:50 7ft 11s 6s 18 22 mph 1010.4mb 65f 64f
12:50 7ft 11s 6s 18 22 mph 1010.6mb 65f 64f
ven. 09/22 11:50 8ft 11s 6s 20 25 mph 1010.6mb 65f 64f
10:50 7ft 11s 6s 20 25 mph 1010.8mb 65f 64f
9:50 7ft 11s 6s 20 25 mph 1011.1mb 65f 64f
8:50 7ft 11s 6s 20 25 mph 1011mb 65f 64f
7:50 6ft 11s 6s 20 25 mph 1010.9mb 65f 64f
6:50 6ft 11s 6s 18 22 mph 1010.8mb 66f 64f
5:50 7ft 11s 6s 20 22 mph 1010.8mb 66f 64f
4:50 7.5ft 11s 6s 18 22 mph 1011.1mb 66f 65f
3:50 7.5ft 11s 6s 20 22 mph 1011.4mb 66f 64f
2:50 8ft 11s 6s 20 25 mph 1011.9mb 66f 64f
1:50 8.5ft 11s 6s 22 27 mph 1012.1mb 66f 64f
12:50 8.5ft 8s 6s 22 25 mph 1012.7mb 66f 64f
11:50 9ft 8s 7s 22 25 mph 1012.7mb 66f 64f
10:50 9.5ft 8s 7s 22 27 mph 1012.9mb 66f 63f
9:50 10ft 8s 6s 25 29 mph 1012.9mb 66f 63f
8:50 9ft 8s 6s 25 29 mph 1012.5mb 66f 63f
7:50 10ft 8s 6s 27 31 mph 1011.6mb 66f 63f
6:50 9.5ft 8s 6s 25 29 mph 1011.7mb 66f 63f
5:50 9ft 8s  -  25 31 mph 1011.2mb 66f 63f
4:50 9ft 8s 6s 25 31 mph 1011mb 66f 63f
3:50 9ft 7s 6s 27 31 mph 1010.9mb 66f 63f
2:50 9ft 8s 6s 27 31 mph 1011.1mb 66f 63f
1:50 9ft 11s 6s 27 31 mph 1011.2mb 66f 63f
12:50 10ft 7s 6s 27 31 mph 1011.3mb 66f 64f
jeu. 09/21 11:50 10.5ft 8s 6s 27 31 mph 1011.6mb 66f 64f
10:50 11ft 8s 6s 29 34 mph 1011.5mb 66f 64f
9:50 10ft 8s 6s 27 34 mph 1011.6mb 66f 64f
8:50 10ft 11s 6s 29 34 mph 1011.4mb 66f 64f
7:50 8.5ft 7s 6s 27 31 mph 1011.4mb 67f 64f
6:50 8ft 12s 6s 25 29 mph 1011.5mb 67f 64f
5:50 7.5ft 12s  -  25 29 mph 1011.6mb 67f 65f
4:50 7ft 12s 6s 22 27 mph 1011.7mb 67f 65f
3:50 7ft 11s 6s 22 25 mph 1011.9mb 67f 65f
2:50 7ft 11s 6s 20 25 mph 1012.3mb 67f 65f
1:50 7.5ft 13s 7s 18 20 mph 1012.5mb 67f 65f
12:50 7ft 13s 7s 20 22 mph 1013mb 67f 65f
11:50 7.5ft 12s 7s 18 20 mph 1013.1mb 67f 65f
10:50 7.5ft 12s 7s 18 20 mph 1013.4mb 67f 65f
9:50 8ft 12s 7s 16 20 mph 1013.1mb 67f 65f
8:50 8ft 13s 7s 20 22 mph 1012.6mb 67f 65f
7:50 8.5ft 13s 7s 18 22 mph 1012.3mb 67f 65f
6:50 7ft 14s 7s 18 22 mph 1011.7mb 67f 65f
5:50 8ft 13s 7s 18 20 mph 1011.4mb 67f 65f
4:50 7.5ft 12s 7s 18 20 mph 1011.3mb 67f 65f
3:50 9ft 13s 7s 20 25 mph 1011.2mb 67f 64f
2:50 8ft 11s 7s 18 20 mph 1011.6mb 67f 64f
1:50 10ft 12s 8s 18 22 mph 1011.6mb 67f 64f
12:50 9ft 14s 7s 18 22 mph 1011.6mb 67f 65f
mer. 09/20 11:50 11ft 14s 8s 18 22 mph 1011.6mb 67f 65f
10:50 10ft 14s 8s 20 25 mph 1011.6mb 67f 65f
9:50 9ft 13s 7s 22 27 mph 1011.5mb 67f 65f